createdAt,value
2023-02-05T00:00:00.626Z,-4.44
2023-02-05T00:02:27.071Z,-4.47
2023-02-05T00:04:53.576Z,-4.47
2023-02-05T00:07:20.007Z,-4.43
2023-02-05T00:09:46.482Z,-4.42
2023-02-05T00:12:12.946Z,-4.45
2023-02-05T00:14:39.388Z,-4.45
2023-02-05T00:17:06.029Z,-4.47
2023-02-05T00:19:32.527Z,-4.45
2023-02-05T00:21:58.965Z,-4.46
2023-02-05T00:24:25.434Z,-4.43
2023-02-05T00:26:51.855Z,-4.41
2023-02-05T00:29:18.560Z,-4.50
2023-02-05T00:31:45.096Z,-4.54
2023-02-05T00:34:11.649Z,-4.57
2023-02-05T00:36:38.132Z,-4.58
2023-02-05T00:39:04.672Z,-4.59
2023-02-05T00:41:31.330Z,-4.61
2023-02-05T00:43:57.794Z,-4.61
2023-02-05T00:46:24.270Z,-4.69
2023-02-05T00:48:50.743Z,-4.61
2023-02-05T00:51:17.269Z,-4.54
2023-02-05T00:53:43.705Z,-4.53
2023-02-05T00:56:10.226Z,-4.58
2023-02-05T00:58:36.911Z,-4.58
2023-02-05T01:01:04.342Z,-4.57
2023-02-05T01:03:31.191Z,-4.69
2023-02-05T01:05:57.786Z,-4.68
2023-02-05T01:08:24.425Z,-4.72
2023-02-05T01:10:52.259Z,-4.65
2023-02-05T01:13:19.198Z,-4.61
2023-02-05T01:15:46.196Z,-4.65
2023-02-05T01:18:13.121Z,-4.69
2023-02-05T01:20:40.772Z,-4.63
2023-02-05T01:23:07.513Z,-4.64
2023-02-05T01:25:34.271Z,-4.69
2023-02-05T01:28:01.106Z,-4.70
2023-02-05T01:30:27.562Z,-4.65
2023-02-05T01:32:54.006Z,-4.65
2023-02-05T01:35:20.646Z,-4.70
2023-02-05T01:37:47.111Z,-4.72
2023-02-05T01:40:17.276Z,-4.72
2023-02-05T01:42:44.029Z,-4.83
2023-02-05T01:45:22.650Z,-4.85
2023-02-05T01:47:51.104Z,-4.88
2023-02-05T01:50:21.781Z,-5.08
2023-02-05T01:52:48.643Z,-5.09
2023-02-05T01:55:15.940Z,-4.97
2023-02-05T01:57:42.631Z,-5.04
2023-02-05T02:00:10.508Z,-5.14
2023-02-05T02:02:38.068Z,-5.25
2023-02-05T02:08:45.411Z,-5.28
2023-02-05T02:11:17.150Z,-5.26
2023-02-05T02:13:45.438Z,-5.37
2023-02-05T02:16:12.559Z,-5.36
2023-02-05T02:18:39.436Z,-5.30
2023-02-05T02:21:14.832Z,-5.25
2023-02-05T02:24:02.496Z,-5.44
2023-02-05T02:26:52.926Z,-5.37
2023-02-05T02:29:25.054Z,-5.44
2023-02-05T02:32:00.055Z,-5.49
2023-02-05T02:34:36.923Z,-5.47
2023-02-05T02:37:11.604Z,-5.54
2023-02-05T02:39:41.440Z,-5.53
2023-02-05T02:42:29.940Z,-5.50
2023-02-05T02:45:00.203Z,-5.61
2023-02-05T02:47:31.534Z,-5.72
2023-02-05T02:50:00.873Z,-5.67
2023-02-05T02:52:33.367Z,-5.64
2023-02-05T02:55:05.452Z,-5.65
2023-02-05T02:57:36.480Z,-5.69
2023-02-05T03:00:08.929Z,-5.70
2023-02-05T03:02:37.632Z,-5.70
2023-02-05T03:05:11.452Z,-5.67
2023-02-05T03:07:42.683Z,-5.73
2023-02-05T03:10:14.608Z,-5.68
2023-02-05T03:12:41.089Z,-5.69
2023-02-05T03:15:08.980Z,-5.80
2023-02-05T03:17:36.654Z,-5.73
2023-02-05T03:20:08.168Z,-5.79
2023-02-05T03:22:34.593Z,-5.71
2023-02-05T03:25:02.886Z,-5.72
2023-02-05T03:27:29.467Z,-5.70
2023-02-05T03:29:56.936Z,-5.67
2023-02-05T03:33:00.729Z,-5.73
2023-02-05T03:35:49.614Z,-5.75
2023-02-05T03:38:19.126Z,-5.77
2023-02-05T03:40:52.539Z,-5.80
2023-02-05T03:43:30.940Z,-5.76
2023-02-05T03:46:07.341Z,-5.76
2023-02-05T03:48:59.396Z,-5.75
2023-02-05T03:51:53.249Z,-5.79
2023-02-05T03:54:35.009Z,-5.85
2023-02-05T03:57:11.116Z,-5.79
2023-02-05T03:59:38.820Z,-5.82
2023-02-05T04:02:05.983Z,-5.73
2023-02-05T04:04:32.411Z,-5.67
2023-02-05T04:06:58.867Z,-5.64
2023-02-05T04:09:25.432Z,-5.68
2023-02-05T04:11:51.982Z,-5.68
2023-02-05T04:14:18.422Z,-5.57
2023-02-05T04:16:44.904Z,-5.65
2023-02-05T04:19:11.511Z,-5.63
2023-02-05T04:21:38.166Z,-5.64
2023-02-05T04:24:05.046Z,-5.69
2023-02-05T04:26:31.627Z,-5.62
2023-02-05T04:28:58.090Z,-5.61
2023-02-05T04:31:24.601Z,-5.59
2023-02-05T04:33:51.115Z,-5.59
2023-02-05T04:36:17.593Z,-5.70
2023-02-05T04:38:44.067Z,-5.65
2023-02-05T04:41:10.647Z,-5.92
2023-02-05T04:43:37.220Z,-5.80
2023-02-05T04:46:07.510Z,-5.70
2023-02-05T04:48:34.244Z,-5.68
2023-02-05T04:51:00.769Z,-5.58
2023-02-05T04:53:27.203Z,-5.57
2023-02-05T04:55:54.905Z,-5.62
2023-02-05T04:58:21.513Z,-5.63
2023-02-05T05:00:48.043Z,-5.62
2023-02-05T05:03:14.582Z,-5.69
2023-02-05T05:05:41.044Z,-5.61
2023-02-05T05:08:07.503Z,-5.55
2023-02-05T05:10:33.937Z,-5.69
2023-02-05T05:13:00.486Z,-5.63
2023-02-05T05:15:26.997Z,-5.57
2023-02-05T05:17:53.433Z,-5.52
2023-02-05T05:20:19.949Z,-5.79
2023-02-05T05:22:46.471Z,-5.99
2023-02-05T05:25:13.074Z,-6.00
2023-02-05T05:27:39.549Z,-5.83
2023-02-05T05:30:06.405Z,-6.02
2023-02-05T05:32:32.866Z,-5.80
2023-02-05T05:34:59.432Z,-5.67
2023-02-05T05:37:25.926Z,-5.75
2023-02-05T05:40:10.833Z,-5.57
2023-02-05T05:42:56.815Z,-5.55
2023-02-05T05:45:23.514Z,-5.67
2023-02-05T05:47:50.003Z,-5.74
2023-02-05T05:50:16.590Z,-5.74
2023-02-05T05:52:43.053Z,-5.63
2023-02-05T05:55:09.604Z,-5.73
2023-02-05T05:57:36.014Z,-5.75
2023-02-05T06:00:02.923Z,-5.66
2023-02-05T06:02:29.408Z,-5.68
2023-02-05T06:04:55.888Z,-5.74
2023-02-05T06:07:22.477Z,-5.85
2023-02-05T06:09:48.946Z,-5.77
2023-02-05T06:12:15.650Z,-5.99
2023-02-05T06:14:42.061Z,-5.92
2023-02-05T06:17:08.653Z,-5.98
2023-02-05T06:19:35.163Z,-5.95
2023-02-05T06:22:01.744Z,-6.05
2023-02-05T06:24:30.794Z,-6.05
2023-02-05T06:26:57.501Z,-6.02
2023-02-05T06:29:24.016Z,-6.73
2023-02-05T06:31:51.649Z,-6.37
2023-02-05T06:34:18.134Z,-6.34
2023-02-05T06:36:44.570Z,-6.32
2023-02-05T06:39:12.223Z,-6.05
2023-02-05T06:41:38.660Z,-6.14
2023-02-05T06:44:05.234Z,-6.02
2023-02-05T06:46:31.749Z,-5.94
2023-02-05T06:48:58.225Z,-6.01
2023-02-05T06:51:24.831Z,-6.08
2023-02-05T06:53:52.604Z,-6.29
2023-02-05T06:56:20.273Z,-6.03
2023-02-05T06:58:46.699Z,-5.83
2023-02-05T07:01:13.127Z,-5.95
2023-02-05T07:03:39.618Z,-5.84
2023-02-05T07:06:06.719Z,-5.79
2023-02-05T07:08:34.492Z,-5.80
2023-02-05T07:11:01.600Z,-5.72
2023-02-05T07:13:29.652Z,-5.57
2023-02-05T07:15:56.105Z,-5.53
2023-02-05T07:18:22.620Z,-5.62
2023-02-05T07:20:49.206Z,-5.70
2023-02-05T07:23:15.990Z,-5.77
2023-02-05T07:25:42.520Z,-5.94
2023-02-05T07:28:09.291Z,-5.99
2023-02-05T07:30:36.154Z,-5.76
2023-02-05T07:33:03.606Z,-5.88
2023-02-05T07:35:31.657Z,-6.10
2023-02-05T07:37:58.476Z,-5.86
2023-02-05T07:40:25.242Z,-6.19
2023-02-05T07:42:51.690Z,-5.98
2023-02-05T07:45:18.309Z,-6.17
2023-02-05T07:47:44.976Z,-6.50
2023-02-05T07:50:11.415Z,-6.59
2023-02-05T07:52:37.864Z,-6.40
2023-02-05T07:55:04.506Z,-6.16
2023-02-05T07:57:30.943Z,-6.48
2023-02-05T07:59:57.634Z,-6.33
2023-02-05T08:02:24.706Z,-6.17
2023-02-05T08:04:51.206Z,-6.12
2023-02-05T08:07:17.957Z,-6.16
2023-02-05T08:09:44.407Z,-5.88
2023-02-05T08:12:10.855Z,-6.10
2023-02-05T08:14:37.363Z,-6.20
2023-02-05T08:17:06.129Z,-6.20
2023-02-05T08:19:32.567Z,-6.11
2023-02-05T08:21:59.058Z,-6.01
2023-02-05T08:24:25.628Z,-5.74
2023-02-05T08:26:52.163Z,-5.64
2023-02-05T08:29:18.794Z,-5.43
2023-02-05T08:31:45.287Z,-5.48
2023-02-05T08:34:11.793Z,-5.35
2023-02-05T08:36:38.401Z,-5.37
2023-02-05T08:39:04.837Z,-5.45
2023-02-05T08:41:31.277Z,-5.23
2023-02-05T08:43:57.780Z,-5.24
2023-02-05T08:46:28.193Z,-5.21
2023-02-05T08:48:58.144Z,-5.37
2023-02-05T08:51:24.662Z,-5.21
2023-02-05T08:53:51.213Z,-5.52
2023-02-05T08:56:19.950Z,-5.81
2023-02-05T08:58:46.720Z,-5.45
2023-02-05T09:01:16.032Z,-5.58
2023-02-05T09:03:42.670Z,-5.54
2023-02-05T09:06:13.631Z,-5.38
2023-02-05T09:08:40.607Z,-5.67
2023-02-05T09:11:08.232Z,-5.81
2023-02-05T09:13:34.740Z,-5.48
2023-02-05T09:16:01.356Z,-5.54
2023-02-05T09:18:27.829Z,-5.40
2023-02-05T09:20:54.506Z,-5.38
2023-02-05T09:23:21.451Z,-5.61
2023-02-05T09:25:47.961Z,-5.31
2023-02-05T09:28:15.121Z,-5.42
2023-02-05T09:30:44.948Z,-5.33
2023-02-05T09:33:12.357Z,-5.29
2023-02-05T09:35:39.152Z,-5.16
2023-02-05T09:38:05.724Z,-4.95
2023-02-05T09:40:59.184Z,-4.82
2023-02-05T09:43:51.475Z,-4.66
2023-02-05T09:46:42.185Z,-4.59
2023-02-05T09:49:17.714Z,-4.55
2023-02-05T09:51:51.614Z,-4.39
2023-02-05T09:54:31.645Z,-4.16
2023-02-05T09:57:04.790Z,-4.70
2023-02-05T09:59:32.777Z,-4.58
2023-02-05T10:02:02.955Z,-4.49
2023-02-05T10:04:30.421Z,-4.43
2023-02-05T10:07:14.758Z,-4.26
2023-02-05T10:09:54.873Z,-4.57
2023-02-05T10:12:37.006Z,-4.45
2023-02-05T10:15:22.070Z,-4.28
2023-02-05T10:18:03.653Z,-4.80
2023-02-05T10:20:39.154Z,-4.76
2023-02-05T10:23:17.993Z,-4.56
2023-02-05T10:26:04.065Z,-4.63
2023-02-05T10:28:48.216Z,-4.42
2023-02-05T10:31:38.383Z,-4.25
2023-02-05T10:34:26.706Z,-4.33
2023-02-05T10:36:54.164Z,-4.75
2023-02-05T10:39:25.785Z,-4.69
2023-02-05T10:42:11.623Z,-4.70
2023-02-05T10:44:45.063Z,-4.46
2023-02-05T10:47:50.883Z,-4.42
2023-02-05T10:50:41.171Z,-4.15
2023-02-05T10:53:07.692Z,-4.27
2023-02-05T10:55:34.423Z,-4.31
2023-02-05T10:58:09.750Z,-3.91
2023-02-05T11:00:36.915Z,-3.72
2023-02-05T11:03:05.434Z,-3.54
2023-02-05T11:05:38.597Z,-3.42
2023-02-05T11:08:05.324Z,-3.60
2023-02-05T11:10:34.949Z,-3.43
2023-02-05T11:13:22.015Z,-3.30
2023-02-05T11:16:04.328Z,-3.72
2023-02-05T11:18:38.189Z,-3.18
2023-02-05T11:21:06.241Z,-3.15
2023-02-05T11:23:39.551Z,-2.81
2023-02-05T11:26:18.027Z,-2.53
2023-02-05T11:28:45.115Z,-2.75
2023-02-05T11:31:27.413Z,-2.57
2023-02-05T11:34:15.472Z,-2.49
2023-02-05T11:36:54.594Z,-2.47
2023-02-05T11:39:34.094Z,-2.33
2023-02-05T11:42:11.273Z,-2.42
2023-02-05T11:44:48.365Z,-2.74
2023-02-05T11:47:23.750Z,-2.78
2023-02-05T11:49:51.813Z,-2.71
2023-02-05T11:52:27.259Z,-2.73
2023-02-05T11:54:54.256Z,-2.68
2023-02-05T11:57:20.642Z,-2.82
2023-02-05T12:00:09.466Z,-3.20
2023-02-05T12:02:38.546Z,-3.09
2023-02-05T12:05:28.959Z,-2.56
2023-02-05T12:08:04.992Z,-2.15
2023-02-05T12:10:40.687Z,-2.10
2023-02-05T12:13:48.344Z,-3.29
2023-02-05T12:16:34.993Z,-3.25
2023-02-05T12:19:23.000Z,-3.40
2023-02-05T12:22:10.416Z,-2.72
2023-02-05T12:24:51.658Z,-2.35
2023-02-05T12:27:50.649Z,-2.46
2023-02-05T12:30:32.073Z,-2.67
2023-02-05T12:33:07.522Z,-2.79
2023-02-05T12:35:34.297Z,-2.40
2023-02-05T12:38:31.533Z,-2.23
2023-02-05T12:41:15.701Z,-2.76
2023-02-05T12:43:46.706Z,-3.01
2023-02-05T12:46:41.151Z,-2.99
2023-02-05T12:49:26.434Z,-3.22
2023-02-05T12:52:04.865Z,-3.22
2023-02-05T12:55:03.981Z,-3.04
2023-02-05T12:57:40.597Z,-2.54
2023-02-05T13:00:14.573Z,-2.73
2023-02-05T13:02:51.244Z,-2.92
2023-02-05T13:05:36.861Z,-2.46
2023-02-05T13:08:24.171Z,-2.90
2023-02-05T13:10:57.273Z,-2.51
2023-02-05T13:13:33.192Z,-2.53
2023-02-05T13:16:21.501Z,-1.75
2023-02-05T13:18:58.461Z,-1.63
2023-02-05T13:21:44.158Z,-1.59
2023-02-05T13:24:41.961Z,-1.89
2023-02-05T13:27:41.628Z,-2.12
2023-02-05T13:30:41.296Z,-2.35
2023-02-05T13:33:08.618Z,-2.35
2023-02-05T13:35:53.308Z,-2.86
2023-02-05T13:38:45.903Z,-3.02
2023-02-05T13:41:34.026Z,-2.92
2023-02-05T13:44:38.177Z,-3.41
2023-02-05T13:47:37.822Z,-3.10
2023-02-05T13:50:35.096Z,-2.96
2023-02-05T13:53:06.068Z,-2.84
2023-02-05T13:55:55.900Z,-2.79
2023-02-05T13:58:26.748Z,-2.61
2023-02-05T14:00:55.979Z,-2.73
2023-02-05T14:03:33.619Z,-2.70
2023-02-05T14:06:00.270Z,-2.69
2023-02-05T14:08:34.369Z,-2.74
2023-02-05T14:11:03.938Z,-2.65
2023-02-05T14:13:33.635Z,-2.72
2023-02-05T14:16:24.801Z,-2.82
2023-02-05T14:19:00.531Z,-2.84
2023-02-05T14:21:30.127Z,-2.86
2023-02-05T14:24:23.468Z,-2.79
2023-02-05T14:27:00.433Z,-3.01
2023-02-05T14:29:41.989Z,-3.06
2023-02-05T14:32:29.446Z,-2.95
2023-02-05T14:35:26.046Z,-3.07
2023-02-05T14:37:56.856Z,-3.02
2023-02-05T14:40:34.973Z,-3.17
2023-02-05T14:43:26.638Z,-3.24
2023-02-05T14:45:53.675Z,-3.16
2023-02-05T14:48:33.669Z,-3.10
2023-02-05T14:51:07.832Z,-3.14
2023-02-05T14:53:37.222Z,-3.22
2023-02-05T14:56:05.351Z,-3.19
2023-02-05T14:58:40.707Z,-3.26
2023-02-05T15:01:46.820Z,-3.54
2023-02-05T15:04:24.087Z,-3.53
2023-02-05T15:06:52.230Z,-3.37
2023-02-05T15:09:26.176Z,-3.19
2023-02-05T15:12:21.066Z,-3.22
2023-02-05T15:14:47.462Z,-3.21
2023-02-05T15:17:16.065Z,-3.19
2023-02-05T15:19:55.617Z,-3.20
2023-02-05T15:22:40.980Z,-3.35
2023-02-05T15:25:26.618Z,-3.37
2023-02-05T15:28:01.511Z,-3.32
2023-02-05T15:30:39.246Z,-3.30
2023-02-05T15:33:13.481Z,-3.36
2023-02-05T15:35:42.944Z,-3.54
2023-02-05T15:38:25.192Z,-3.47
2023-02-05T15:40:53.071Z,-3.46
2023-02-05T15:43:23.107Z,-3.51
2023-02-05T15:45:59.214Z,-3.43
2023-02-05T15:48:27.288Z,-3.54
2023-02-05T15:51:04.944Z,-3.55
2023-02-05T15:53:41.557Z,-3.61
2023-02-05T15:56:14.178Z,-3.64
2023-02-05T15:59:06.124Z,-3.69
2023-02-05T16:01:36.746Z,-3.67
2023-02-05T16:04:16.978Z,-3.69
2023-02-05T16:06:43.533Z,-3.73
2023-02-05T16:09:18.790Z,-3.67
2023-02-05T16:11:46.441Z,-3.74
2023-02-05T16:14:15.208Z,-3.68
2023-02-05T16:17:26.797Z,-3.72
2023-02-05T16:20:04.503Z,-3.74
2023-02-05T16:22:45.604Z,-3.88
2023-02-05T16:25:30.736Z,-3.84
2023-02-05T16:27:59.985Z,-3.90
2023-02-05T16:30:34.322Z,-3.95
2023-02-05T16:33:03.452Z,-3.95
2023-02-05T16:35:35.656Z,-3.96
2023-02-05T16:38:03.496Z,-4.02
2023-02-05T16:40:35.782Z,-4.03
2023-02-05T16:43:27.289Z,-4.17
2023-02-05T16:46:08.971Z,-4.22
2023-02-05T16:48:52.621Z,-4.28
2023-02-05T16:51:37.553Z,-4.31
2023-02-05T16:54:29.886Z,-4.28
2023-02-05T16:57:15.940Z,-4.37
2023-02-05T16:59:57.070Z,-4.34
2023-02-05T17:02:35.502Z,-4.46
2023-02-05T17:05:05.847Z,-4.51
2023-02-05T17:07:32.876Z,-4.53
2023-02-05T17:10:19.020Z,-4.48
2023-02-05T17:12:47.662Z,-4.45
2023-02-05T17:15:14.058Z,-4.46
2023-02-05T17:17:59.235Z,-4.56
2023-02-05T17:20:28.219Z,-4.57
2023-02-05T17:23:03.735Z,-4.58
2023-02-05T17:25:38.697Z,-4.60
2023-02-05T17:28:07.622Z,-4.64
2023-02-05T17:30:34.813Z,-4.64
2023-02-05T17:33:14.032Z,-4.62
2023-02-05T17:35:40.437Z,-4.60
2023-02-05T17:38:06.886Z,-4.58
2023-02-05T17:40:33.569Z,-4.54
2023-02-05T17:43:00.230Z,-4.53
2023-02-05T17:45:31.331Z,-4.56
2023-02-05T17:47:57.865Z,-4.57
2023-02-05T17:50:24.314Z,-4.53
2023-02-05T17:52:52.211Z,-4.56
2023-02-05T17:55:20.616Z,-4.55
2023-02-05T17:57:47.185Z,-4.61
2023-02-05T18:00:19.871Z,-4.54
2023-02-05T18:02:46.573Z,-4.54
2023-02-05T18:05:13.213Z,-4.52
2023-02-05T18:07:44.583Z,-4.68
2023-02-05T18:10:12.847Z,-4.78
2023-02-05T18:12:39.557Z,-4.73
2023-02-05T18:15:06.662Z,-4.81
2023-02-05T18:17:33.222Z,-4.77
2023-02-05T18:19:59.672Z,-4.64
2023-02-05T18:22:26.363Z,-4.65
2023-02-05T18:24:52.871Z,-4.65
2023-02-05T18:27:20.022Z,-4.67
2023-02-05T18:29:46.528Z,-4.71
2023-02-05T18:32:12.958Z,-4.63
2023-02-05T18:34:40.008Z,-4.64
2023-02-05T18:37:06.467Z,-4.67
2023-02-05T18:39:32.926Z,-4.85
2023-02-05T18:41:59.406Z,-4.88
2023-02-05T18:44:26.659Z,-4.80
2023-02-05T18:46:54.061Z,-4.73
2023-02-05T18:49:20.674Z,-4.72
2023-02-05T18:51:47.103Z,-4.75
2023-02-05T18:54:13.622Z,-4.70
2023-02-05T18:56:40.238Z,-4.68
2023-02-05T18:59:09.553Z,-4.66
2023-02-05T19:01:38.405Z,-4.66
2023-02-05T19:04:10.651Z,-4.68
2023-02-05T19:06:37.300Z,-4.72
2023-02-05T19:09:04.430Z,-4.79
2023-02-05T19:11:31.539Z,-4.79
2023-02-05T19:14:00.487Z,-4.79
2023-02-05T19:16:27.660Z,-4.77
2023-02-05T19:18:54.693Z,-4.77
2023-02-05T19:21:22.479Z,-4.78
2023-02-05T19:23:51.715Z,-4.79
2023-02-05T19:26:21.771Z,-4.77
2023-02-05T19:28:56.828Z,-4.76
2023-02-05T19:31:25.939Z,-4.77
2023-02-05T19:33:52.608Z,-4.80
2023-02-05T19:36:19.973Z,-4.82
2023-02-05T19:38:46.531Z,-4.85
2023-02-05T19:41:15.771Z,-4.82
2023-02-05T19:43:50.077Z,-4.87
2023-02-05T19:46:20.829Z,-4.87
2023-02-05T19:48:47.946Z,-4.90
2023-02-05T19:51:15.835Z,-5.06
2023-02-05T19:53:45.259Z,-5.04
2023-02-05T19:56:15.178Z,-4.97
2023-02-05T19:58:44.174Z,-4.93
2023-02-05T20:01:24.304Z,-4.92
2023-02-05T20:03:53.000Z,-4.90
2023-02-05T20:06:23.795Z,-4.96
2023-02-05T20:08:50.678Z,-4.97
2023-02-05T20:11:18.598Z,-5.09
2023-02-05T20:13:45.779Z,-5.07
2023-02-05T20:16:18.828Z,-5.00
2023-02-05T20:18:46.601Z,-5.00
2023-02-05T20:21:20.443Z,-5.04
2023-02-05T20:23:48.315Z,-5.08
2023-02-05T20:26:18.898Z,-5.10
2023-02-05T20:29:05.473Z,-5.11
2023-02-05T20:31:35.006Z,-5.17
2023-02-05T20:34:03.144Z,-5.08
2023-02-05T20:36:31.139Z,-5.20
2023-02-05T20:38:58.870Z,-5.17
2023-02-05T20:41:25.294Z,-5.11
2023-02-05T20:43:52.175Z,-5.06
2023-02-05T20:46:18.987Z,-5.07
2023-02-05T20:48:45.827Z,-5.15
2023-02-05T20:51:14.393Z,-5.07
2023-02-05T20:53:41.023Z,-5.11
2023-02-05T20:56:11.349Z,-5.11
2023-02-05T20:58:38.016Z,-5.09
2023-02-05T21:01:13.897Z,-5.31
2023-02-05T21:03:43.883Z,-5.51
2023-02-05T21:06:11.366Z,-5.30
2023-02-05T21:08:39.272Z,-5.23
2023-02-05T21:11:06.502Z,-5.24
2023-02-05T21:13:33.837Z,-5.29
2023-02-05T21:16:00.947Z,-5.27
2023-02-05T21:18:28.811Z,-5.19
2023-02-05T21:20:55.728Z,-5.25
2023-02-05T21:23:22.262Z,-5.18
2023-02-05T21:25:48.720Z,-5.21
2023-02-05T21:28:16.587Z,-5.24
2023-02-05T21:30:44.681Z,-5.28
2023-02-05T21:33:11.129Z,-5.21
2023-02-05T21:35:38.980Z,-5.26
2023-02-05T21:38:05.497Z,-5.29
2023-02-05T21:40:32.082Z,-5.46
2023-02-05T21:42:58.756Z,-5.27
2023-02-05T21:45:25.619Z,-5.27
2023-02-05T21:47:52.074Z,-5.31
2023-02-05T21:50:18.543Z,-5.27
2023-02-05T21:52:45.084Z,-5.26
2023-02-05T21:55:11.805Z,-5.27
2023-02-05T21:57:38.308Z,-5.27
2023-02-05T22:00:05.137Z,-5.24
2023-02-05T22:02:31.601Z,-5.22
2023-02-05T22:04:58.157Z,-5.24
2023-02-05T22:07:24.884Z,-5.24
2023-02-05T22:09:51.324Z,-5.23
2023-02-05T22:12:17.903Z,-5.22
2023-02-05T22:14:44.576Z,-5.26
2023-02-05T22:17:11.143Z,-5.26
2023-02-05T22:19:37.590Z,-5.29
2023-02-05T22:22:04.125Z,-5.25
2023-02-05T22:24:30.733Z,-5.43
2023-02-05T22:26:57.543Z,-5.46
2023-02-05T22:29:24.027Z,-5.43
2023-02-05T22:31:52.269Z,-5.53
2023-02-05T22:34:18.996Z,-5.81
2023-02-05T22:36:45.739Z,-5.85
2023-02-05T22:39:12.498Z,-5.95
2023-02-05T22:41:41.565Z,-5.99
2023-02-05T22:44:09.501Z,-5.94
2023-02-05T22:46:39.889Z,-5.85
2023-02-05T22:49:06.844Z,-5.69
2023-02-05T22:51:39.021Z,-5.91
2023-02-05T22:54:07.529Z,-6.09
2023-02-05T22:56:35.627Z,-6.04
2023-02-05T22:59:03.523Z,-5.91
2023-02-05T23:01:35.889Z,-5.86
2023-02-05T23:04:06.143Z,-6.05
2023-02-05T23:06:38.365Z,-5.85
2023-02-05T23:09:11.276Z,-5.88
2023-02-05T23:11:37.752Z,-6.02
2023-02-05T23:14:05.944Z,-5.86
2023-02-05T23:16:35.600Z,-5.96
2023-02-05T23:19:05.878Z,-6.23
2023-02-05T23:21:34.338Z,-6.35
2023-02-05T23:24:01.372Z,-6.40
2023-02-05T23:26:34.027Z,-6.49
2023-02-05T23:29:01.214Z,-6.50
2023-02-05T23:31:28.593Z,-6.40
2023-02-05T23:33:55.565Z,-6.57
2023-02-05T23:36:22.366Z,-6.70
2023-02-05T23:38:49.148Z,-6.63
2023-02-05T23:41:35.440Z,-6.68
2023-02-05T23:44:22.438Z,-6.76
2023-02-05T23:46:50.410Z,-6.77
2023-02-05T23:49:21.667Z,-6.77
2023-02-05T23:51:52.083Z,-6.64
2023-02-05T23:54:18.727Z,-6.52
2023-02-05T23:56:45.362Z,-6.70
2023-02-05T23:59:13.095Z,-6.66
